createdAt,value
2019-04-07T00:01:52.683Z,13.24
2019-04-07T00:04:25.522Z,13.08
2019-04-07T00:06:56.620Z,13.04
2019-04-07T00:09:27.732Z,13.10
2019-04-07T00:11:59.178Z,13.06
2019-04-07T00:14:28.189Z,13.04
2019-04-07T00:16:57.233Z,12.91
2019-04-07T00:19:25.935Z,12.86
2019-04-07T00:21:54.562Z,12.90
2019-04-07T00:24:23.187Z,12.79
2019-04-07T00:26:52.453Z,12.81
2019-04-07T00:29:21.536Z,12.81
2019-04-07T00:31:50.169Z,12.85
2019-04-07T00:34:19.194Z,12.73
2019-04-07T00:36:48.058Z,12.69
2019-04-07T00:39:16.937Z,12.72
2019-04-07T00:41:45.665Z,12.67
2019-04-07T00:44:14.676Z,12.68
2019-04-07T00:46:43.516Z,12.67
2019-04-07T00:49:13.120Z,12.73
2019-04-07T00:51:42.147Z,12.50
2019-04-07T00:54:11.467Z,12.55
2019-04-07T00:56:40.181Z,12.48
2019-04-07T00:59:08.864Z,12.46
2019-04-07T01:01:37.474Z,12.58
2019-04-07T01:04:06.186Z,12.51
2019-04-07T01:06:36.189Z,12.36
2019-04-07T01:09:06.961Z,12.20
2019-04-07T01:11:36.301Z,12.10
2019-04-07T01:14:06.006Z,11.95
2019-04-07T01:16:35.263Z,11.74
2019-04-07T01:19:04.583Z,11.75
2019-04-07T01:21:33.453Z,11.60
2019-04-07T01:24:02.336Z,11.62
2019-04-07T01:26:31.822Z,11.80
2019-04-07T01:29:00.517Z,11.88
2019-04-07T01:31:29.810Z,11.82
2019-04-07T01:33:58.741Z,11.68
2019-04-07T01:36:27.983Z,11.55
2019-04-07T01:38:56.686Z,11.46
2019-04-07T01:41:34.072Z,11.39
2019-04-07T01:44:08.020Z,11.25
2019-04-07T01:46:46.071Z,11.34
2019-04-07T01:49:21.154Z,11.31
2019-04-07T01:52:07.223Z,11.48
2019-04-07T01:54:53.849Z,11.52
2019-04-07T01:57:53.532Z,11.58
2019-04-07T02:00:33.803Z,11.63
2019-04-07T02:03:12.421Z,11.58
2019-04-07T02:06:02.002Z,11.43
2019-04-07T02:08:54.069Z,11.36
2019-04-07T02:11:29.391Z,11.25
2019-04-07T02:14:07.027Z,11.37
2019-04-07T02:16:43.461Z,11.36
2019-04-07T02:19:28.267Z,11.44
2019-04-07T02:22:15.928Z,11.34
2019-04-07T02:24:49.873Z,11.36
2019-04-07T02:27:33.426Z,11.32
2019-04-07T02:30:23.856Z,11.29
2019-04-07T02:33:12.487Z,11.38
2019-04-07T02:36:25.524Z,11.33
2019-04-07T02:39:04.516Z,11.34
2019-04-07T02:41:40.295Z,11.29
2019-04-07T02:44:22.856Z,11.25
2019-04-07T02:47:08.587Z,11.32
2019-04-07T02:49:56.571Z,11.22
2019-04-07T02:52:43.186Z,10.79
2019-04-07T02:55:30.886Z,10.54
2019-04-07T02:58:21.636Z,10.45
2019-04-07T03:01:12.149Z,10.08
2019-04-07T03:04:05.994Z,10.02
2019-04-07T03:06:53.654Z,9.95
2019-04-07T03:09:54.662Z,9.92
2019-04-07T03:12:51.390Z,9.95
2019-04-07T03:15:46.191Z,10.38
2019-04-07T03:18:34.420Z,10.35
2019-04-07T03:21:10.523Z,10.45
2019-04-07T03:24:06.560Z,10.60
2019-04-07T03:26:55.592Z,10.55
2019-04-07T03:29:43.041Z,10.69
2019-04-07T03:32:30.460Z,10.65
2019-04-07T03:35:26.575Z,10.49
2019-04-07T03:38:17.056Z,10.57
2019-04-07T03:41:05.368Z,10.41
2019-04-07T03:43:56.991Z,10.36
2019-04-07T03:46:34.767Z,10.67
2019-04-07T03:49:14.900Z,10.59
2019-04-07T03:51:49.865Z,10.62
2019-04-07T03:54:48.309Z,10.71
2019-04-07T03:57:36.489Z,10.70
2019-04-07T04:00:18.702Z,10.81
2019-04-07T04:03:09.479Z,10.78
2019-04-07T04:05:57.366Z,10.78
2019-04-07T04:08:35.309Z,10.78
2019-04-07T04:11:10.151Z,10.81
2019-04-07T04:13:46.172Z,10.82
2019-04-07T04:16:18.393Z,10.89
2019-04-07T04:18:47.086Z,10.81
2019-04-07T04:21:16.411Z,10.84
2019-04-07T04:23:45.749Z,10.84
2019-04-07T04:26:15.135Z,10.77
2019-04-07T04:28:44.259Z,10.76
2019-04-07T04:31:13.124Z,10.70
2019-04-07T04:33:42.725Z,10.78
2019-04-07T04:36:11.376Z,10.78
2019-04-07T04:38:40.489Z,10.74
2019-04-07T04:41:09.999Z,10.77
2019-04-07T04:43:39.306Z,10.72
2019-04-07T04:46:10.896Z,10.67
2019-04-07T04:48:38.860Z,10.63
2019-04-07T04:51:08.506Z,10.67
2019-04-07T04:53:38.160Z,10.60
2019-04-07T04:56:07.621Z,10.66
2019-04-07T04:58:36.294Z,10.64
2019-04-07T05:01:05.013Z,10.54
2019-04-07T05:03:33.869Z,10.56
2019-04-07T05:06:02.568Z,10.53
2019-04-07T05:08:31.290Z,10.62
2019-04-07T05:11:00.038Z,10.51
2019-04-07T05:13:28.878Z,10.59
2019-04-07T05:15:57.723Z,10.67
2019-04-07T05:18:26.864Z,10.68
2019-04-07T05:20:56.318Z,10.56
2019-04-07T05:23:25.184Z,10.59
2019-04-07T05:25:54.381Z,10.60
2019-04-07T05:28:23.125Z,10.67
2019-04-07T05:30:51.882Z,10.67
2019-04-07T05:33:21.110Z,10.65
2019-04-07T05:35:50.437Z,10.64
2019-04-07T05:38:19.236Z,10.65
2019-04-07T05:40:47.853Z,10.67
2019-04-07T05:43:16.488Z,10.70
2019-04-07T05:45:46.391Z,10.79
2019-04-07T05:48:19.302Z,10.86
2019-04-07T05:50:46.094Z,10.87
2019-04-07T05:53:15.063Z,10.89
2019-04-07T05:55:43.763Z,10.96
2019-04-07T05:58:15.447Z,11.09
2019-04-07T06:00:48.704Z,11.08
2019-04-07T06:03:20.522Z,11.17
2019-04-07T06:05:51.071Z,11.26
2019-04-07T06:08:30.281Z,11.24
2019-04-07T06:11:00.178Z,11.33
2019-04-07T06:13:32.934Z,11.31
2019-04-07T06:16:05.640Z,11.37
2019-04-07T06:18:34.764Z,11.52
2019-04-07T06:21:17.332Z,11.50
2019-04-07T06:23:50.727Z,11.61
2019-04-07T06:26:22.208Z,11.69
2019-04-07T06:28:54.633Z,11.66
2019-04-07T06:31:27.103Z,11.72
2019-04-07T06:34:04.178Z,11.82
2019-04-07T06:36:51.632Z,11.87
2019-04-07T06:39:19.933Z,11.94
2019-04-07T06:41:53.443Z,12.03
2019-04-07T06:44:30.120Z,12.04
2019-04-07T06:47:30.752Z,12.16
2019-04-07T06:50:17.894Z,12.04
2019-04-07T06:53:10.621Z,12.10
2019-04-07T06:56:06.050Z,12.28
2019-04-07T06:59:05.948Z,12.34
2019-04-07T07:02:14.465Z,12.45
2019-04-07T07:05:08.421Z,12.43
2019-04-07T07:08:10.037Z,12.46
2019-04-07T07:10:56.290Z,12.50
2019-04-07T07:13:41.419Z,12.51
2019-04-07T07:16:35.013Z,12.62
2019-04-07T07:19:40.146Z,12.69
2019-04-07T07:22:28.448Z,12.71
2019-04-07T07:25:01.311Z,12.71
2019-04-07T07:27:40.378Z,12.91
2019-04-07T07:30:12.174Z,12.93
2019-04-07T07:32:44.111Z,12.97
2019-04-07T07:35:15.292Z,13.05
2019-04-07T07:37:58.136Z,13.10
2019-04-07T07:40:31.311Z,13.22
2019-04-07T07:43:14.572Z,13.37
2019-04-07T07:45:48.316Z,13.44
2019-04-07T07:48:20.808Z,13.39
2019-04-07T07:51:12.569Z,13.43
2019-04-07T07:53:39.493Z,13.52
2019-04-07T07:56:12.391Z,13.62
2019-04-07T07:58:50.448Z,13.70
2019-04-07T08:01:23.513Z,13.79
2019-04-07T08:03:55.872Z,13.78
2019-04-07T08:06:25.041Z,13.85
2019-04-07T08:09:01.154Z,13.93
2019-04-07T08:11:24.249Z,14.01
2019-04-07T08:13:53.610Z,14.00
2019-04-07T08:16:22.271Z,14.01
2019-04-07T08:18:51.074Z,14.07
2019-04-07T08:21:20.860Z,14.11
2019-04-07T08:23:49.572Z,14.16
2019-04-07T08:26:25.193Z,14.11
2019-04-07T08:28:54.825Z,14.13
2019-04-07T08:31:25.668Z,14.22
2019-04-07T08:33:59.681Z,14.27
2019-04-07T08:36:27.829Z,14.27
2019-04-07T08:38:57.143Z,14.21
2019-04-07T08:41:26.738Z,14.22
2019-04-07T08:44:17.210Z,14.26
2019-04-07T08:47:10.809Z,14.35
2019-04-07T08:49:38.103Z,14.39
2019-04-07T08:52:12.051Z,14.38
2019-04-07T08:54:44.193Z,14.53
2019-04-07T08:57:21.379Z,14.51
2019-04-07T08:59:53.885Z,14.62
2019-04-07T09:02:26.886Z,14.60
2019-04-07T09:04:53.081Z,14.78
2019-04-07T09:07:24.302Z,14.85
2019-04-07T09:10:20.698Z,14.83
2019-04-07T09:12:50.998Z,14.82
2019-04-07T09:15:29.757Z,14.81
2019-04-07T09:18:05.483Z,14.77
2019-04-07T09:20:48.471Z,14.99
2019-04-07T09:23:34.417Z,15.09
2019-04-07T09:26:20.719Z,15.08
2019-04-07T09:28:59.220Z,14.96
2019-04-07T09:32:02.794Z,15.06
2019-04-07T09:35:16.607Z,15.14
2019-04-07T09:38:21.638Z,15.16
2019-04-07T09:45:12.793Z,15.40
2019-04-07T09:48:02.130Z,15.37
2019-04-07T09:50:37.597Z,15.47
2019-04-07T09:53:21.491Z,15.58
2019-04-07T09:56:42.887Z,15.59
2019-04-07T09:59:37.542Z,15.75
2019-04-07T10:02:37.241Z,15.77
2019-04-07T10:08:55.636Z,15.92
2019-04-07T10:11:39.128Z,16.15
2019-04-07T10:14:37.632Z,16.13
2019-04-07T10:17:27.724Z,16.15
2019-04-07T10:23:48.734Z,16.11
2019-04-07T10:30:15.699Z,16.42
2019-04-07T11:15:45.140Z,17.54
2019-04-07T11:44:48.896Z,17.92
2019-04-07T11:51:19.527Z,17.98
2019-04-07T11:58:15.092Z,18.16
2019-04-07T12:01:22.920Z,18.17
2019-04-07T12:04:30.663Z,18.27
2019-04-07T12:08:31.144Z,18.26
2019-04-07T13:35:28.081Z,19.41
2019-04-07T13:38:22.014Z,19.48
2019-04-07T13:41:21.777Z,19.51
2019-04-07T13:44:08.844Z,19.51
2019-04-07T13:46:49.415Z,19.56
2019-04-07T13:49:27.838Z,19.60
2019-04-07T13:52:18.402Z,19.72
2019-04-07T13:54:52.591Z,19.57
2019-04-07T13:57:42.935Z,19.61
2019-04-07T14:00:37.121Z,19.61
2019-04-07T14:03:43.719Z,19.68
2019-04-07T14:06:17.509Z,19.79
2019-04-07T14:09:04.401Z,19.91
2019-04-07T14:12:08.278Z,19.91
2019-04-07T14:14:54.987Z,19.88
2019-04-07T14:18:05.794Z,19.97
2019-04-07T14:21:18.133Z,20.20
2019-04-07T14:24:23.795Z,20.28
2019-04-07T14:27:22.077Z,20.13
2019-04-07T14:30:04.661Z,20.13
2019-04-07T14:33:00.140Z,20.28
2019-04-07T14:36:08.917Z,20.28
2019-04-07T14:39:00.314Z,20.19
2019-04-07T14:42:01.026Z,20.25
2019-04-07T14:45:07.805Z,20.15
2019-04-07T14:47:54.607Z,20.45
2019-04-07T14:50:57.150Z,20.76
2019-04-07T14:54:15.301Z,20.76
2019-04-07T14:57:09.362Z,20.76
2019-04-07T15:00:02.129Z,20.69
2019-04-07T15:17:26.398Z,20.79
2019-04-07T15:47:00.502Z,20.38
2019-04-07T15:49:29.521Z,20.46
2019-04-07T15:51:59.334Z,20.60
2019-04-07T15:54:28.603Z,20.64
2019-04-07T15:56:58.780Z,20.54
2019-04-07T15:59:29.788Z,20.59
2019-04-07T16:01:58.510Z,20.53
2019-04-07T16:04:29.315Z,20.53
2019-04-07T16:06:57.883Z,20.50
2019-04-07T16:09:34.630Z,20.50
2019-04-07T16:11:59.077Z,20.63
2019-04-07T16:14:27.617Z,20.63
2019-04-07T16:16:59.539Z,20.72
2019-04-07T16:19:37.406Z,20.77
2019-04-07T16:21:57.356Z,20.58
2019-04-07T16:24:26.899Z,20.68
2019-04-07T16:26:56.186Z,20.70
2019-04-07T16:29:24.879Z,20.74
2019-04-07T16:31:55.772Z,20.74
2019-04-07T16:34:23.920Z,20.42
2019-04-07T16:36:55.136Z,20.20
2019-04-07T16:39:23.120Z,20.13
2019-04-07T16:41:51.674Z,20.13
2019-04-07T16:44:20.416Z,20.14
2019-04-07T16:46:49.039Z,20.12
2019-04-07T16:49:19.002Z,20.08
2019-04-07T16:51:49.522Z,19.96
2019-04-07T16:54:24.492Z,19.91
2019-04-07T16:56:56.952Z,19.86
2019-04-07T17:03:17.304Z,19.82
2019-04-07T17:05:48.028Z,19.55
2019-04-07T17:08:24.957Z,19.38
2019-04-07T17:11:21.366Z,19.38
2019-04-07T17:13:53.642Z,19.39
2019-04-07T17:16:52.177Z,19.12
2019-04-07T17:19:29.211Z,19.12
2019-04-07T17:22:01.823Z,19.05
2019-04-07T17:24:44.177Z,18.94
2019-04-07T17:27:27.001Z,18.89
2019-04-07T17:29:58.449Z,18.82
2019-04-07T17:32:40.371Z,18.84
2019-04-07T17:35:15.254Z,18.74
2019-04-07T17:40:58.010Z,18.70
2019-04-07T17:44:00.853Z,18.69
2019-04-07T17:47:05.826Z,18.69
2019-04-07T17:49:56.667Z,18.65
2019-04-07T17:52:41.247Z,18.55
2019-04-07T17:55:29.956Z,18.58
2019-04-07T17:58:12.639Z,18.58
2019-04-07T18:00:56.802Z,18.48
2019-04-07T18:03:57.073Z,18.48
2019-04-07T18:06:42.896Z,18.29
2019-04-07T18:09:51.353Z,18.29
2019-04-07T18:12:47.917Z,18.14
2019-04-07T18:15:38.310Z,18.14
2019-04-07T18:22:22.026Z,18.04
2019-04-07T18:25:10.548Z,17.90
2019-04-07T18:28:03.004Z,17.90
2019-04-07T18:30:54.283Z,17.86
2019-04-07T18:33:41.388Z,17.61
2019-04-07T18:36:36.009Z,17.56
2019-04-07T18:39:36.375Z,17.56
2019-04-07T18:42:27.273Z,17.56
2019-04-07T18:45:23.152Z,17.33
2019-04-07T18:48:08.034Z,17.33
2019-04-07T18:51:13.211Z,17.36
2019-04-07T18:54:34.174Z,17.22
2019-04-07T18:57:24.982Z,17.17
2019-04-07T19:00:24.521Z,17.15
2019-04-07T19:03:04.514Z,17.07
2019-04-07T19:06:12.764Z,17.07
2019-04-07T19:09:04.917Z,17.00
2019-04-07T19:12:18.899Z,16.92
2019-04-07T19:15:09.196Z,16.90
2019-04-07T19:18:00.574Z,16.80
2019-04-07T19:20:56.280Z,16.76
2019-04-07T19:23:47.744Z,16.75
2019-04-07T19:26:44.299Z,16.60
2019-04-07T19:29:28.263Z,16.60
2019-04-07T19:32:19.916Z,16.61
2019-04-07T19:35:05.735Z,16.61
2019-04-07T19:38:17.114Z,16.58
2019-04-07T19:41:02.924Z,16.55
2019-04-07T19:44:06.015Z,16.39
2019-04-07T19:46:59.683Z,16.25
2019-04-07T19:49:55.443Z,16.23
2019-04-07T19:52:44.242Z,16.20
2019-04-07T19:55:32.578Z,16.27
2019-04-07T19:58:37.300Z,16.25
2019-04-07T20:01:29.193Z,16.16
2019-04-07T20:04:24.903Z,16.22
2019-04-07T20:07:11.537Z,16.24
2019-04-07T20:09:59.783Z,16.10
2019-04-07T20:12:42.501Z,16.02
2019-04-07T20:15:30.610Z,16.02
2019-04-07T20:18:25.552Z,16.06
2019-04-07T20:21:18.484Z,16.03
2019-04-07T20:24:09.216Z,15.90
2019-04-07T20:26:58.845Z,15.83
2019-04-07T20:29:43.373Z,15.80
2019-04-07T20:32:44.876Z,15.87
2019-04-07T20:35:20.986Z,15.91
2019-04-07T20:38:51.176Z,15.90
2019-04-07T20:41:21.710Z,15.65
2019-04-07T20:44:01.180Z,15.68
2019-04-07T20:46:53.664Z,15.52
2019-04-07T20:50:18.272Z,15.56
2019-04-07T20:53:22.850Z,15.58
2019-04-07T20:56:14.661Z,15.63
2019-04-07T20:59:29.453Z,15.68
2019-04-07T21:02:33.737Z,15.75
2019-04-07T21:05:24.715Z,15.70
2019-04-07T21:08:22.975Z,15.64
2019-04-07T21:11:08.079Z,15.65
2019-04-07T21:13:54.921Z,15.64
2019-04-07T21:17:03.813Z,15.66
2019-04-07T21:19:47.336Z,15.59
2019-04-07T21:22:31.434Z,15.58
2019-04-07T21:25:24.848Z,15.57
2019-04-07T21:28:05.145Z,15.58
2019-04-07T21:30:46.237Z,15.55
2019-04-07T21:33:45.404Z,15.51
2019-04-07T21:36:28.047Z,15.48
2019-04-07T21:39:30.563Z,15.37
2019-04-07T21:42:20.973Z,15.30
2019-04-07T21:45:28.507Z,15.15
2019-04-07T21:48:28.593Z,15.39
2019-04-07T21:51:19.488Z,15.37
2019-04-07T21:54:14.001Z,15.25
2019-04-07T21:57:05.744Z,15.28
2019-04-07T21:59:59.517Z,15.18
2019-04-07T22:02:45.617Z,15.20
2019-04-07T22:05:33.352Z,15.20
2019-04-07T22:08:16.965Z,15.10
2019-04-07T22:10:43.248Z,15.06
2019-04-07T22:13:14.225Z,15.16
2019-04-07T22:15:55.577Z,15.19
2019-04-07T22:18:39.475Z,15.15
2019-04-07T22:21:17.056Z,15.10
2019-04-07T22:23:54.132Z,15.17
2019-04-07T22:26:28.246Z,15.16
2019-04-07T22:29:04.021Z,15.15
2019-04-07T22:31:45.612Z,15.03
2019-04-07T22:34:15.066Z,14.88
2019-04-07T22:36:47.029Z,14.94
2019-04-07T22:39:14.239Z,14.98
2019-04-07T22:41:44.247Z,15.00
2019-04-07T22:44:13.360Z,14.88
2019-04-07T22:46:42.204Z,14.91
2019-04-07T22:49:11.416Z,14.95
2019-04-07T22:51:43.096Z,14.91
2019-04-07T22:54:10.571Z,14.89
2019-04-07T22:56:39.926Z,14.85
2019-04-07T22:59:10.507Z,14.74
2019-04-07T23:01:40.787Z,14.63
2019-04-07T23:04:09.719Z,14.57
2019-04-07T23:06:38.418Z,14.68
2019-04-07T23:09:08.140Z,14.71
2019-04-07T23:11:37.615Z,14.57
2019-04-07T23:14:07.291Z,14.48
2019-04-07T23:16:36.037Z,14.53
2019-04-07T23:19:04.743Z,14.28
2019-04-07T23:21:34.083Z,14.32
2019-04-07T23:24:03.443Z,14.25
2019-04-07T23:26:32.221Z,14.18
2019-04-07T23:29:00.854Z,14.13
2019-04-07T23:31:32.026Z,14.14
2019-04-07T23:34:00.750Z,14.26
2019-04-07T23:36:29.348Z,14.34
2019-04-07T23:38:58.148Z,14.26
2019-04-07T23:41:27.738Z,14.35
2019-04-07T23:43:56.798Z,14.35
2019-04-07T23:46:27.220Z,14.42
2019-04-07T23:48:56.040Z,14.47
2019-04-07T23:51:24.672Z,14.46
2019-04-07T23:54:10.891Z,14.35
2019-04-07T23:56:41.975Z,14.39
2019-04-07T23:59:10.885Z,14.23
